Latest Weather Observations for Parafield

IDS60801

Issued at 9:02 am CST Thursday 29 September 2016 (issued every 30 minutes, with the page automatically refreshed every 10 minutes)

About weather observations | Map of weather stations | Latest weather observations for SA | Other Formats
Station Details ID: 023013 Name: PARAFIELD AIRPORT Lat: -34.80 Lon: 138.63 Height: 9.5 m
Data from the previous 72 hours. | See also: Recent months at Parafield
Date/Time
CST
Temp
°C
App
Temp
°C
Dew
Point
°C
Rel
Hum
%
Delta-T
°C
Wind Press
QNH
hPa
Press
MSL
hPa
Rain since
9am
mm
Dir  Spd
km/h
Gust
km/h
Spd
kts
Gust
kts
29/09:00am 11.9 2.3 7.8 76 2.0 WSW 48 67 26 36 982.3 982.3 29.8
29/08:34am 11.6 2.9 8.3 80 1.6 WSW 44 70 24 38 981.5 981.5 29.8
29/08:30am 11.6 2.6 8.8 83 1.4 WSW 46 61 25 33 981.3 981.3 29.8
29/08:06am 11.0 3.2 9.9 93 0.6 W 41 59 22 32 980.1 980.1 29.6
29/08:00am 11.1 3.7 9.9 92 0.6 WNW 39 56 21 30 979.9 979.9 29.6
29/07:44am 10.9 3.8 9.5 91 0.7 WNW 37 54 20 29 979.5 979.5 29.4
29/07:31am 11.0 4.3 9.8 92 0.6 WNW 35 54 19 29 979.0 979.0 29.4
29/07:30am 11.0 4.0 9.8 92 0.6 NW 37 54 20 29 979.0 979.0 29.4
29/07:16am 10.6 3.4 10.4 99 0.1 NW 39 54 21 29 978.9 978.9 29.4
29/07:08am 10.0 3.4 10.0 100 0.0 NNW 35 54 19 29 978.9 978.9 29.4
29/07:00am 9.2 1.6 9.2 100 0.0 NNW 39 54 21 29 978.9 978.9 29.2
29/06:55am 9.0 0.6 9.0 100 0.0 NNW 43 69 23 37 979.0 979.0 29.2
29/06:30am 8.0 -0.2 8.0 100 0.0 N 41 67 22 36 979.2 979.2 28.6
29/06:00am 7.9 -0.9 7.9 100 0.0 N 44 65 24 35 980.7 980.7 27.0
29/05:59am 7.9 -0.9 7.9 100 0.0 N 44 65 24 35 980.8 980.8 27.0
29/05:57am 7.9 -0.8 7.9 100 0.0 N 43 65 23 35 980.9 980.9 26.8
29/05:45am 7.9 -0.4 7.8 99 0.0 N 41 61 22 33 981.2 981.2 26.0
29/05:39am 7.9 -0.4 7.6 98 0.1 N 41 61 22 33 981.3 981.3 26.0
29/05:30am 8.0 -0.3 7.7 98 0.1 N 41 57 22 31 981.6 981.6 25.8
29/05:00am 8.2 -0.3 6.8 91 0.6 N 41 61 22 33 982.6 982.6 25.2
29/04:54am 8.1 0.0 6.9 92 0.6 N 39 61 21 33 982.8 982.8 25.2
29/04:30am 8.1 0.0 6.9 92 0.6 N 39 54 21 29 983.8 983.8 25.2
29/04:00am 8.2 -0.4 6.7 90 0.7 N 41 54 22 29 985.0 985.0 25.0
29/03:36am 8.1 -0.1 6.6 90 0.7 N 39 57 21 31 985.6 985.6 25.0
29/03:30am 8.2 0.4 6.7 90 0.7 N 37 56 20 30 985.7 985.7 24.8
29/03:00am 8.6 1.5 6.2 85 1.1 N 33 56 18 30 986.2 986.2 24.6
29/02:49am 8.5 1.6 6.3 86 1.0 N 32 50 17 27 986.4 986.4 24.6
29/02:30am 8.9 1.3 6.0 82 1.3 N 35 48 19 26 987.0 987.0 24.4
29/02:06am 8.7 1.5 5.8 82 1.3 N 33 54 18 29 988.2 988.2 24.4
29/02:00am 8.6 1.6 6.2 85 1.1 N 32 43 17 23 988.3 988.3 24.4
29/01:35am 8.4 1.5 6.5 88 0.9 N 32 56 17 30 989.2 989.2 24.4
29/01:30am 8.4 2.0 6.9 90 0.7 N 30 44 16 24 989.3 989.3 24.4
29/01:00am 8.4 2.3 6.7 89 0.8 N 28 39 15 21 990.4 990.4 23.8
29/12:30am 8.5 1.4 6.6 88 0.9 N 33 46 18 25 991.0 991.0 23.4
29/12:00am 8.9 2.5 7.0 88 0.9 N 30 41 16 22 991.6 991.6 23.2
 
Date/Time
CST
Temp
°C
App
Temp
°C
Dew
Point
°C
Rel
Hum
%
Delta-T
°C
Wind Press
QNH
hPa
Press
MSL
hPa
Rain since
9am
mm
Dir  Spd
km/h
Gust
km/h
Spd
kts
Gust
kts
28/11:30pm 9.5 4.3 7.1 85 1.1 N 24 28 13 15 992.2 992.2 23.0
28/11:00pm 10.5 4.9 7.2 80 1.6 NNW 26 35 14 19 992.3 992.3 23.0
28/10:42pm 10.6 4.8 7.8 83 1.4 NNW 28 46 15 25 992.6 992.6 23.0
28/10:30pm 10.7 4.9 7.9 83 1.4 NNW 28 43 15 23 992.6 992.6 23.0
28/10:00pm 11.2 5.2 8.6 84 1.3 NW 30 44 16 24 992.6 992.6 23.0
28/09:30pm 11.6 6.0 8.8 83 1.4 WNW 28 35 15 19 992.4 992.4 23.0
28/09:00pm 11.3 6.1 8.9 85 1.2 WNW 26 37 14 20 992.2 992.2 23.0
28/08:30pm 10.6 6.4 9.8 95 0.4 WNW 22 28 12 15 992.4 992.4 23.0
28/08:20pm 10.4 6.6 9.9 97 0.3 WNW 20 32 11 17 992.5 992.5 23.0
28/08:13pm 10.5 5.6 10.0 97 0.3 WNW 26 39 14 21 992.6 992.6 23.0
28/08:00pm 10.6 4.7 10.3 98 0.2 NW 32 44 17 24 992.7 992.7 22.8
28/07:45pm 11.1 6.3 10.2 94 0.5 WNW 26 41 14 22 992.8 992.8 20.8
28/07:40pm 11.7 7.3 10.3 91 0.7 WNW 24 35 13 19 992.8 992.8 19.2
28/07:36pm 11.8 6.6 10.2 90 0.8 WNW 28 46 15 25 992.6 992.6 19.2
28/07:30pm 11.7 5.6 9.8 88 1.0 NW 32 46 17 25 992.3 992.3 19.2
28/07:23pm 11.9 6.0 10.6 92 0.7 NW 32 50 17 27 992.4 992.4 19.2
28/07:18pm 11.9 5.9 10.8 93 0.6 NW 33 50 18 27 992.5 992.5 19.2
28/07:00pm 12.6 9.0 11.7 94 0.5 NW 22 32 12 17 992.0 992.0 18.8
28/06:30pm 12.6 7.9 10.8 89 0.9 W 26 37 14 20 991.9 991.9 18.8
28/06:00pm 12.8 7.0 10.9 88 1.0 W 32 48 17 26 991.6 991.6 18.8
28/05:32pm 13.9 9.4 12.6 92 0.7 WNW 28 65 15 35 991.0 991.0 18.8
28/05:30pm 14.5 10.7 13.7 95 0.5 WNW 26 35 14 19 990.8 990.8 18.8
28/05:06pm 14.4 11.5 14.1 98 0.2 NW 22 32 12 17 989.9 989.9 18.8
28/05:00pm 14.6 11.8 14.4 99 0.1 NW 22 33 12 18 989.5 989.5 18.8
28/04:49pm 15.4 9.5 14.8 96 0.3 NNW 39 57 21 31 989.2 989.2 18.6
28/04:47pm 15.6 9.4 14.8 95 0.5 NNW 41 57 22 31 989.3 989.3 18.4
28/04:45pm 16.1 10.2 14.8 92 0.7 N 39 57 21 31 989.3 989.3 17.6
28/04:38pm 16.3 11.5 14.7 90 0.9 NNE 33 54 18 29 988.0 988.0 17.2
28/04:30pm 16.2 11.0 14.6 90 0.9 NNE 35 48 19 26 987.1 987.1 17.2
28/04:25pm 16.2 10.9 14.2 88 1.1 NE 35 48 19 26 986.9 986.9 17.0
28/04:00pm 15.6 12.5 13.3 86 1.3 NE 22 35 12 19 987.5 987.5 15.6
28/03:52pm 15.6 11.7 13.3 86 1.3 NE 26 44 14 24 987.9 987.9 14.8
28/03:30pm 16.6 10.4 12.8 78 2.1 NE 37 48 20 26 987.6 987.6 13.2
28/03:00pm 17.6 10.8 11.9 69 3.2 NE 39 61 21 33 989.5 989.5 13.2
28/02:38pm 17.7 10.4 11.5 67 3.4 NE 41 59 22 32 989.8 989.8 13.2
28/02:30pm 17.7 10.7 12.4 71 3.0 NE 41 56 22 30 990.3 990.3 13.2
28/02:00pm 15.6 8.8 11.8 78 2.1 NE 39 59 21 32 992.3 992.3 13.2
28/01:45pm 14.0 9.2 11.7 86 1.2 NE 28 50 15 27 993.5 993.5 13.2
28/01:30pm 12.7 9.0 11.6 93 0.6 ENE 22 32 12 17 994.7 994.7 13.2
28/01:20pm 12.2 9.8 11.3 94 0.5 ENE 15 24 8 13 995.6 995.6 12.8
28/01:00pm 11.7 8.4 10.9 95 0.4 NE 19 24 10 13 997.4 997.4 12.0
28/12:30pm 11.6 8.0 10.5 93 0.6 NE 20 28 11 15 999.0 999.0 9.2
28/12:00pm 11.8 6.2 10.0 89 0.9 NNE 30 46 16 25 1000.6 1000.6 5.0
28/11:53am 12.0 5.9 9.6 85 1.2 NNE 32 48 17 26 1000.9 1000.9 4.0
28/11:45am 12.4 6.6 9.4 82 1.5 NNE 30 48 16 26 1000.8 1000.8 3.0
28/11:30am 13.1 6.9 9.2 77 2.0 NNE 32 44 17 24 1000.5 1000.5 1.4
28/11:15am 14.5 7.1 8.5 67 3.0 NNE 37 50 20 27 1000.0 1000.0 0.2
28/11:00am 16.6 8.7 6.4 51 5.0 NE 37 56 20 30 998.7 998.7 0.0
28/10:36am 18.1 9.7 5.7 44 6.0 NE 39 61 21 33 999.1 999.1 0.0
28/10:30am 18.2 10.0 6.7 47 5.8 NE 39 52 21 28 999.3 999.3 0.0
28/10:00am 18.9 11.9 6.7 45 6.1 NE 33 50 18 27 1000.6 1000.6 0.0
28/09:55am 19.0 12.0 6.2 43 6.3 NE 32 50 17 27 1001.0 1001.0 0.0
28/09:30am 18.6 11.1 6.1 44 6.2 NE 35 46 19 25 1002.1 1002.1 0.0
28/09:00am 18.5 10.9 6.0 44 6.2 NE 35 54 19 29 1003.3 1003.3 0.0
28/08:51am 18.1 10.9 6.0 45 5.9 NE 33 54 18 29 1003.5 1003.5 0.0
28/08:30am 17.6 10.5 6.2 47 5.6 NE 33 43 18 23 1004.3 1004.3 0.0
28/08:00am 16.8 11.1 6.9 52 4.9 NE 26 33 14 18 1005.1 1005.1 0.0
28/07:30am 15.2 9.5 6.5 56 4.2 NE 26 33 14 18 1005.5 1005.5 0.0
28/07:00am 13.8 8.0 6.2 60 3.6 NE 26 35 14 19 1006.0 1006.0 0.0
28/06:30am 12.7 6.9 6.1 64 3.1 NE 26 33 14 18 1006.5 1006.5 0.0
28/06:00am 11.9 7.3 6.4 69 2.6 NE 20 26 11 14 1007.1 1007.1 0.0
28/05:30am 11.6 7.0 6.7 72 2.3 NE 20 30 11 16 1007.4 1007.4 0.0
28/05:00am 11.3 6.8 6.8 74 2.1 NE 20 26 11 14 1007.6 1007.6 0.0
28/04:30am 11.7 6.8 6.8 72 2.3 NE 22 28 12 15 1008.2 1008.2 0.0
28/04:00am 10.7 6.2 6.3 74 2.1 NE 19 22 10 12 1008.4 1008.4 0.0
28/03:30am 9.8 5.2 5.6 75 1.9 NE 19 20 10 11 1008.7 1008.7 0.0
28/03:00am 9.6 5.0 5.8 77 1.7 NE 19 22 10 12 1009.2 1009.2 0.0
28/02:30am 9.0 4.9 6.1 82 1.3 NE 17 20 9 11 1009.7 1009.7 0.0
28/02:00am 7.5 3.6 5.5 87 0.9 NE 15 15 8 8 1010.4 1010.4 0.0
28/01:30am 7.8 4.9 6.3 90 0.7 NE 11 13 6 7 1011.0 1011.0 0.0
28/01:00am 6.0 4.5 4.8 92 0.5 SE 2 7 1 4 1011.6 1011.6 0.0
28/12:30am 7.7 5.1 6.2 90 0.7 NNE 9 11 5 6 1012.1 1012.1 0.0
28/12:00am 8.0 4.6 6.1 88 0.9 N 13 15 7 8 1012.1 1012.1 0.0
 
Date/Time
CST
Temp
°C
App
Temp
°C
Dew
Point
°C
Rel
Hum
%
Delta-T
°C
Wind Press
QNH
hPa
Press
MSL
hPa
Rain since
9am
mm
Dir  Spd
km/h
Gust
km/h
Spd
kts
Gust
kts
27/11:30pm 8.6 7.0 6.2 85 1.1 NE 4 7 2 4 1012.0 1012.0 0.0
27/11:00pm 7.6 5.9 5.9 89 0.8 ENE 4 7 2 4 1012.3 1012.3 0.0
27/10:30pm 8.6 6.4 6.4 86 1.0 NE 7 11 4 6 1012.8 1012.8 0.0
27/10:00pm 7.6 5.5 5.7 88 0.9 ENE 6 7 3 4 1012.9 1012.9 0.0
27/09:30pm 7.9 5.8 5.7 86 1.0 NE 6 13 3 7 1013.2 1013.2 0.0
27/09:00pm 8.9 6.9 6.3 84 1.2 NNE 6 9 3 5 1013.5 1013.5 0.0
27/08:30pm 9.5 8.8 6.9 84 1.2 CALM 0 0 0 0 1013.6 1013.6 0.0
27/08:00pm 9.7 7.6 6.6 81 1.4 ENE 7 7 4 4 1013.7 1013.7 0.0
27/07:30pm 10.3 8.2 6.8 79 1.6 NE 7 9 4 5 1013.8 1013.8 0.0
27/07:00pm 11.9 11.3 7.2 73 2.3 CALM 0 0 0 0 1013.8 1013.8 0.0
27/06:30pm 12.5 10.7 7.0 69 2.6 WNW 6 7 3 4 1013.9 1013.9 0.0
27/06:00pm 13.7 10.9 6.8 63 3.3 WNW 11 15 6 8 1014.0 1014.0 0.0
27/05:30pm 14.7 11.2 7.0 60 3.8 W 15 20 8 11 1014.0 1014.0 0.0
27/05:00pm 15.4 11.8 6.9 57 4.2 WNW 15 20 8 11 1013.9 1013.9 0.0
27/04:30pm 16.0 12.9 7.2 56 4.4 WNW 13 20 7 11 1014.0 1014.0 0.0
27/04:00pm 16.3 12.8 7.3 55 4.5 W 15 22 8 12 1014.2 1014.2 0.0
27/03:30pm 16.3 12.8 7.3 55 4.5 WNW 15 24 8 13 1014.2 1014.2 0.0
27/03:00pm 16.7 13.3 7.6 55 4.6 NW 15 24 8 13 1014.5 1014.5 0.0
27/02:30pm 16.5 11.7 7.4 55 4.5 WNW 22 30 12 16 1014.8 1014.8 0.0
27/02:00pm 15.6 11.2 7.4 58 4.1 WNW 20 30 11 16 1015.1 1015.1 0.0
27/01:30pm 16.0 11.7 7.2 56 4.4 WNW 19 39 10 21 1015.1 1015.1 0.0
27/01:00pm 16.5 12.1 7.4 55 4.5 NW 20 26 11 14 1015.3 1015.3 0.0
27/12:30pm 16.7 12.5 8.4 58 4.2 WNW 20 28 11 15 1015.6 1015.6 0.0
27/12:00pm 16.2 12.2 8.4 60 4.0 WNW 19 24 10 13 1015.8 1015.8 0.0
27/11:30am 15.9 12.4 8.9 63 3.6 NW 17 26 9 14 1016.1 1016.1 0.0
27/11:00am 15.7 11.1 8.0 60 3.9 NW 22 28 12 15 1016.1 1016.1 0.0
27/10:30am 14.5 11.0 8.7 68 2.9 WNW 17 33 9 18 1016.3 1016.3 0.0
27/10:00am 14.0 10.0 8.4 69 2.8 WNW 19 26 10 14 1016.7 1016.7 0.0
27/09:30am 14.3 11.7 9.3 72 2.6 WNW 13 24 7 13 1016.9 1016.9 0.0
27/09:00am 13.0 10.5 8.3 73 2.3 NNW 11 17 6 9 1016.7 1016.7 0.0
27/08:30am 11.7 9.0 7.4 75 2.1 NNE 11 15 6 8 1016.7 1016.7 0.0
27/08:00am 10.5 7.4 7.2 80 1.6 N 13 15 7 8 1016.7 1016.7 0.0
27/07:30am 9.3 6.2 7.1 86 1.0 N 13 17 7 9 1016.2 1016.2 0.0
27/07:00am 7.6 4.3 6.5 93 0.5 NNE 13 15 7 8 1015.9 1015.9 0.0
27/06:30am 6.1 2.7 6.0 99 0.0 NNE 13 17 7 9 1015.7 1015.7 0.0
27/06:00am 5.4 1.9 5.3 99 0.0 NNE 13 15 7 8 1015.5 1015.5 0.0
27/05:30am 6.1 2.3 6.0 99 0.0 NNE 15 15 8 8 1015.1 1015.1 0.0
27/05:00am 5.1 1.9 5.0 99 0.0 NE 11 13 6 7 1014.7 1014.7 0.0
27/04:30am 5.1 2.3 5.0 99 0.0 NE 9 9 5 5 1014.3 1014.3 0.0
27/04:00am 5.3 2.8 4.7 96 0.3 NE 7 9 4 5 1014.1 1014.1 0.0
27/03:30am 5.5 3.1 4.3 92 0.5 NNE 6 9 3 5 1014.0 1014.0 0.0
27/03:00am 7.9 7.1 6.4 90 0.7 CALM 0 0 0 0 1014.3 1014.3 0.0
27/02:30am 8.5 6.4 5.8 83 1.2 SW 6 9 3 5 1014.2 1014.2 0.0
27/02:00am 10.0 6.4 6.7 80 1.5 SW 15 20 8 11 1014.5 1014.5 0.0
27/01:30am 10.7 6.3 6.6 76 1.9 SW 19 24 10 13 1014.5 1014.5 0.0
27/01:00am 10.9 6.7 5.9 71 2.3 WSW 17 24 9 13 1014.4 1014.4 0.0
27/12:30am 10.3 6.3 6.8 79 1.6 WSW 17 22 9 12 1014.9 1014.9 0.0
27/12:00am 11.0 6.1 7.1 77 1.9 WSW 22 30 12 16 1014.9 1014.9 0.0
 
Date/Time
CST
Temp
°C
App
Temp
°C
Dew
Point
°C
Rel
Hum
%
Delta-T
°C
Wind Press
QNH
hPa
Press
MSL
hPa
Rain since
9am
mm
Dir  Spd
km/h
Gust
km/h
Spd
kts
Gust
kts
26/11:30pm 11.1 6.2 7.0 76 1.9 WSW 22 30 12 16 1015.0 1015.0 0.0
26/11:00pm 11.1 6.6 7.0 76 2.0 WSW 20 26 11 14 1015.1 1015.1 0.0
26/10:30pm 11.2 6.3 6.9 75 2.0 WSW 22 28 12 15 1015.2 1015.2 0.0
26/10:00pm 11.1 6.8 7.0 76 2.0 WSW 19 22 10 12 1015.2 1015.2 0.0
26/09:30pm 11.5 6.2 7.0 74 2.1 WSW 24 33 13 18 1015.1 1015.1 0.0
26/09:00pm 11.4 6.5 6.7 73 2.2 WSW 22 32 12 17 1014.9 1014.9 0.0
26/08:30pm 11.6 6.6 6.3 70 2.5 WSW 22 32 12 17 1014.7 1014.7 0.0
26/08:00pm 11.7 6.7 6.6 71 2.4 WSW 22 32 12 17 1014.4 1014.4 0.0
26/07:30pm 12.0 6.5 6.1 67 2.8 WSW 24 32 13 17 1014.0 1014.0 0.0
26/07:00pm 12.1 6.8 6.6 69 2.6 WSW 24 39 13 21 1013.7 1013.7 0.0
26/06:30pm 12.3 5.9 5.2 62 3.3 WSW 28 39 15 21 1013.6 1013.6 0.0
26/06:00pm 13.3 7.0 7.3 67 2.9 WSW 30 39 16 21 1013.2 1013.2 0.0
26/05:30pm 14.0 6.9 5.6 57 4.0 W 32 43 17 23 1012.8 1012.8 0.0
26/05:00pm 14.5 7.4 5.3 54 4.3 W 32 48 17 26 1012.5 1012.5 0.0
26/04:39pm 14.9 8.6 5.7 54 4.4 W 28 46 15 25 1012.2 1012.2 0.0
26/04:30pm 15.1 8.6 6.7 57 4.1 W 30 44 16 24 1012.1 1012.1 0.0
26/04:00pm 15.5 8.1 5.1 50 4.9 W 33 43 18 23 1012.0 1012.0 0.0
26/03:30pm 15.6 8.2 4.9 49 5.0 W 33 43 18 23 1011.9 1011.9 0.0
26/03:00pm 16.2 8.2 5.8 50 5.0 W 37 52 20 28 1011.9 1011.9 0.0
26/02:30pm 16.0 8.5 6.4 53 4.7 WNW 35 46 19 25 1011.7 1011.7 0.0
26/02:00pm 16.2 8.9 7.2 55 4.5 W 35 48 19 26 1011.8 1011.8 0.0
26/01:52pm 16.5 10.0 8.2 58 4.2 W 32 50 17 27 1011.8 1011.8 0.0
26/01:30pm 15.3 8.8 8.1 62 3.6 W 32 43 17 23 1011.8 1011.8 0.0
26/01:00pm 15.2 9.8 9.6 69 2.9 W 28 39 15 21 1011.8 1011.8 0.0
26/12:30pm 16.0 11.2 9.0 63 3.6 W 24 35 13 19 1011.9 1011.9 0.0
26/12:00pm 15.5 9.6 9.2 66 3.2 W 30 37 16 20 1012.0 1012.0 0.0
26/11:30am 16.9 12.4 8.6 58 4.3 W 22 32 12 17 1011.8 1011.8 0.0
26/11:00am 15.7 9.6 8.4 62 3.7 NW 30 41 16 22 1012.3 1012.3 0.0
26/10:30am 15.8 9.5 7.3 57 4.2 NW 30 43 16 23 1012.3 1012.3 0.0
26/10:00am 14.9 10.5 7.5 61 3.7 NW 20 30 11 16 1012.5 1012.5 0.0
26/09:30am 14.7 10.2 6.3 57 4.0 NNW 19 26 10 14 1012.4 1012.4 0.0

Other Formats:

Comma delimited format used in spreadsheet applications
http://www.bom.gov.au/fwo/IDS60801/IDS60801.95677.axf

JavaScript Object Notation format (JSON) in row-major order
http://www.bom.gov.au/fwo/IDS60801/IDS60801.95677.json